Hugo, Minnesota
Current Conditions -  °F | °C
As of 7:45 PM on Saturday 25 Oct 2014 (Local Time) from KANE Reporting Station
Clear Clear  
Wind Chill: 52°   Ceiling: Unl
Heat Index: 52°   Visibility: 10mi
Dew Point: 28°   Wind: 8mph
Humidity: 41%   Direction: 290°WNW
Pressure: 30.04"   Gusts: NA
Location:  45.16°N, 92.99°W
Report Text: KANE 260045Z 29007KT 10SM SKC 11/M02 A3004
Loading
Personal Weather Stations






























Interactive Weather Map
Tropical Storm Tracking
New forecast layout! Learn more

10-Day Weather Forecast

Advertisements
Track Severe Weather on mobile